createdAt,value
2018-12-05T00:00:34.610Z,1024.46
2018-12-05T00:01:34.612Z,1024.47
2018-12-05T00:02:34.589Z,1024.51
2018-12-05T00:03:34.612Z,1024.48
2018-12-05T00:04:34.589Z,1024.44
2018-12-05T00:05:34.558Z,1024.39
2018-12-05T00:06:34.538Z,1024.46
2018-12-05T00:07:34.547Z,1024.41
2018-12-05T00:08:34.548Z,1024.51
2018-12-05T00:09:34.538Z,1024.49
2018-12-05T00:10:34.498Z,1024.46
2018-12-05T00:11:34.498Z,1024.41
2018-12-05T00:12:34.499Z,1024.44
2018-12-05T00:13:34.485Z,1024.45
2018-12-05T00:14:34.494Z,1024.48
2018-12-05T00:15:34.451Z,1024.52
2018-12-05T00:16:34.456Z,1024.48
2018-12-05T00:17:34.429Z,1024.50
2018-12-05T00:18:34.409Z,1024.49
2018-12-05T00:19:34.433Z,1024.46
2018-12-05T00:20:34.398Z,1024.48
2018-12-05T00:21:34.378Z,1024.45
2018-12-05T00:22:34.391Z,1024.48
2018-12-05T00:23:34.362Z,1024.47
2018-12-05T00:24:34.379Z,1024.43
2018-12-05T00:25:34.330Z,1024.41
2018-12-05T00:26:34.325Z,1024.51
2018-12-05T00:27:34.344Z,1024.44
2018-12-05T00:28:34.319Z,1024.47
2018-12-05T00:29:34.333Z,1024.39
2018-12-05T00:30:34.295Z,1024.43
2018-12-05T00:31:34.266Z,1024.38
2018-12-05T00:32:34.260Z,1024.44
2018-12-05T00:33:34.245Z,1024.40
2018-12-05T00:34:34.276Z,1024.36
2018-12-05T00:35:34.275Z,1024.36
2018-12-05T00:36:34.214Z,1024.25
2018-12-05T00:37:34.204Z,1024.31
2018-12-05T00:38:34.195Z,1024.23
2018-12-05T00:39:34.218Z,1024.17
2018-12-05T00:40:34.213Z,1024.13
2018-12-05T00:41:34.170Z,1024.04
2018-12-05T00:42:34.146Z,1024.05
2018-12-05T00:43:34.133Z,1024.00
2018-12-05T00:44:34.130Z,1023.97
2018-12-05T00:45:34.113Z,1023.99
2018-12-05T00:46:34.143Z,1024.08
2018-12-05T00:47:34.111Z,1024.08
2018-12-05T00:48:34.084Z,1024.08
2018-12-05T00:49:34.067Z,1024.10
2018-12-05T00:50:34.059Z,1024.08
2018-12-05T00:51:34.070Z,1024.13
2018-12-05T00:52:34.059Z,1024.12
2018-12-05T00:53:34.074Z,1024.11
2018-12-05T00:54:34.016Z,1024.03
2018-12-05T00:55:34.025Z,1024.11
2018-12-05T00:56:33.994Z,1024.09
2018-12-05T00:57:33.984Z,1024.15
2018-12-05T00:58:33.992Z,1024.11
2018-12-05T00:59:33.959Z,1024.21
2018-12-05T01:00:34.860Z,1024.18
2018-12-05T01:01:33.975Z,1024.24
2018-12-05T01:02:33.975Z,1024.28
2018-12-05T01:03:33.922Z,1024.31
2018-12-05T01:04:33.938Z,1024.33
2018-12-05T01:05:33.900Z,1024.32
2018-12-05T01:06:33.905Z,1024.36
2018-12-05T01:07:33.866Z,1024.33
2018-12-05T01:08:33.898Z,1024.31
2018-12-05T01:09:33.868Z,1024.27
2018-12-05T01:10:33.855Z,1024.29
2018-12-05T01:11:33.872Z,1024.24
2018-12-05T01:12:33.827Z,1024.25
2018-12-05T01:13:33.804Z,1024.27
2018-12-05T01:14:33.796Z,1024.35
2018-12-05T01:15:33.798Z,1024.39
2018-12-05T01:16:33.811Z,1024.34
2018-12-05T01:17:33.806Z,1024.41
2018-12-05T01:18:33.763Z,1024.44
2018-12-05T01:19:33.737Z,1024.43
2018-12-05T01:20:33.751Z,1024.40
2018-12-05T01:21:33.723Z,1024.42
2018-12-05T01:22:33.746Z,1024.40
2018-12-05T01:23:33.692Z,1024.42
2018-12-05T01:24:33.711Z,1024.41
2018-12-05T01:25:33.674Z,1024.33
2018-12-05T01:26:33.661Z,1024.37
2018-12-05T01:27:33.657Z,1024.34
2018-12-05T01:28:33.674Z,1024.33
2018-12-05T01:29:33.629Z,1024.35
2018-12-05T01:30:33.615Z,1024.38
2018-12-05T01:31:33.609Z,1024.36
2018-12-05T01:32:33.600Z,1024.33
2018-12-05T01:33:33.644Z,1024.34
2018-12-05T01:34:33.586Z,1024.29
2018-12-05T01:35:33.557Z,1024.36
2018-12-05T01:36:33.546Z,1024.36
2018-12-05T01:37:33.536Z,1024.29
2018-12-05T01:38:33.567Z,1024.37
2018-12-05T01:39:33.517Z,1024.36
2018-12-05T01:40:33.547Z,1024.41
2018-12-05T01:41:33.496Z,1024.37
2018-12-05T01:42:33.481Z,1024.33
2018-12-05T01:43:33.496Z,1024.34
2018-12-05T01:44:33.498Z,1024.31
2018-12-05T01:45:33.486Z,1024.36
2018-12-05T01:46:33.459Z,1024.38
2018-12-05T01:47:33.442Z,1024.32
2018-12-05T01:48:33.434Z,1024.35
2018-12-05T01:49:33.443Z,1024.32
2018-12-05T01:50:33.406Z,1024.31
2018-12-05T01:51:33.384Z,1024.28
2018-12-05T01:52:33.371Z,1024.25
2018-12-05T01:53:33.360Z,1024.25
2018-12-05T01:54:33.387Z,1024.20
2018-12-05T01:55:33.369Z,1024.24
2018-12-05T01:56:33.395Z,1024.26
2018-12-05T01:57:33.323Z,1024.27
2018-12-05T01:58:33.305Z,1024.26
2018-12-05T01:59:33.300Z,1024.27
2018-12-05T02:00:33.312Z,1024.32
2018-12-05T02:01:33.285Z,1024.26
2018-12-05T02:02:33.264Z,1024.26
2018-12-05T02:03:33.251Z,1024.27
2018-12-05T02:04:33.238Z,1024.18
2018-12-05T02:05:33.256Z,1024.16
2018-12-05T02:06:33.220Z,1024.20
2018-12-05T02:07:33.237Z,1024.16
2018-12-05T02:08:33.851Z,1024.21
2018-12-05T02:09:33.187Z,1024.18
2018-12-05T02:10:33.206Z,1024.16
2018-12-05T02:11:33.169Z,1024.16
2018-12-05T02:12:33.182Z,1024.16
2018-12-05T02:13:33.144Z,1024.16
2018-12-05T02:14:33.150Z,1024.17
2018-12-05T02:15:33.120Z,1024.12
2018-12-05T02:16:33.108Z,1024.13
2018-12-05T02:17:33.142Z,1024.13
2018-12-05T02:18:33.091Z,1024.15
2018-12-05T02:19:33.081Z,1024.23
2018-12-05T02:20:33.063Z,1024.16
2018-12-05T02:21:33.070Z,1024.19
2018-12-05T02:22:33.063Z,1024.18
2018-12-05T02:23:33.032Z,1024.23
2018-12-05T02:24:33.031Z,1024.24
2018-12-05T02:25:33.011Z,1024.20
2018-12-05T02:26:33.000Z,1024.19
2018-12-05T02:27:33.021Z,1024.12
2018-12-05T02:28:32.989Z,1024.17
2018-12-05T02:29:32.966Z,1024.10
2018-12-05T02:30:32.961Z,1024.12
2018-12-05T02:31:32.944Z,1024.12
2018-12-05T02:32:32.964Z,1024.07
2018-12-05T02:33:32.920Z,1024.14
2018-12-05T02:34:32.917Z,1024.10
2018-12-05T02:35:32.909Z,1024.11
2018-12-05T02:36:32.911Z,1024.14
2018-12-05T02:37:32.877Z,1024.15
2018-12-05T02:38:32.867Z,1024.09
2018-12-05T02:39:32.858Z,1024.08
2018-12-05T02:40:32.856Z,1024.08
2018-12-05T02:41:32.863Z,1024.10
2018-12-05T02:42:32.927Z,1024.10
2018-12-05T02:43:32.809Z,1024.07
2018-12-05T02:44:32.797Z,1024.03
2018-12-05T02:45:32.793Z,1024.08
2018-12-05T02:46:32.803Z,1024.07
2018-12-05T02:47:32.770Z,1024.06
2018-12-05T02:48:32.787Z,1024.03
2018-12-05T02:49:32.744Z,1024.07
2018-12-05T02:50:32.759Z,1024.03
2018-12-05T02:51:32.729Z,1024.07
2018-12-05T02:52:32.741Z,1024.10
2018-12-05T02:53:32.734Z,1024.08
2018-12-05T02:54:32.692Z,1024.07
2018-12-05T02:55:32.685Z,1024.12
2018-12-05T02:56:32.673Z,1024.08
2018-12-05T02:57:32.683Z,1024.03
2018-12-05T02:58:32.699Z,1024.00
2018-12-05T02:59:32.640Z,1023.98
2018-12-05T03:00:32.622Z,1023.98
2018-12-05T03:01:32.613Z,1023.95
2018-12-05T03:02:32.604Z,1024.01
2018-12-05T03:03:32.623Z,1023.94
2018-12-05T03:04:32.597Z,1024.01
2018-12-05T03:05:32.569Z,1023.98
2018-12-05T03:06:32.561Z,1024.01
2018-12-05T03:07:32.575Z,1023.99
2018-12-05T03:08:32.536Z,1023.99
2018-12-05T03:09:32.565Z,1023.98
2018-12-05T03:10:32.550Z,1023.95
2018-12-05T03:11:32.504Z,1024.00
2018-12-05T03:12:32.502Z,1024.02
2018-12-05T03:13:32.490Z,1023.97
2018-12-05T03:14:32.480Z,1023.98
2018-12-05T03:15:32.492Z,1023.95
2018-12-05T03:16:32.484Z,1023.96
2018-12-05T03:17:32.438Z,1023.91
2018-12-05T03:18:32.433Z,1023.89
2018-12-05T03:19:32.446Z,1023.89
2018-12-05T03:20:32.412Z,1023.83
2018-12-05T03:21:32.403Z,1023.90
2018-12-05T03:22:32.386Z,1023.85
2018-12-05T03:23:32.425Z,1023.82
2018-12-05T03:24:32.400Z,1023.76
2018-12-05T03:25:32.353Z,1023.80
2018-12-05T03:26:32.357Z,1023.71
2018-12-05T03:27:32.329Z,1023.75
2018-12-05T03:28:32.318Z,1023.77
2018-12-05T03:29:32.349Z,1023.79
2018-12-05T03:30:32.301Z,1023.81
2018-12-05T03:31:32.318Z,1023.76
2018-12-05T03:32:32.280Z,1023.76
2018-12-05T03:33:32.265Z,1023.83
2018-12-05T03:34:32.289Z,1023.81
2018-12-05T03:35:32.247Z,1023.79
2018-12-05T03:36:32.251Z,1023.82
2018-12-05T03:37:32.220Z,1023.84
2018-12-05T03:38:32.213Z,1023.87
2018-12-05T03:39:32.241Z,1023.85
2018-12-05T03:40:32.193Z,1023.88
2018-12-05T03:41:32.184Z,1023.85
2018-12-05T03:42:32.171Z,1023.85
2018-12-05T03:43:32.164Z,1023.85
2018-12-05T03:44:32.176Z,1023.81
2018-12-05T03:45:32.137Z,1023.82
2018-12-05T03:46:32.119Z,1023.80
2018-12-05T03:47:32.110Z,1023.84
2018-12-05T03:48:32.101Z,1023.81
2018-12-05T03:49:32.091Z,1023.81
2018-12-05T03:50:32.148Z,1023.79
2018-12-05T03:51:32.079Z,1023.78
2018-12-05T03:52:32.073Z,1023.71
2018-12-05T03:53:32.049Z,1023.74
2018-12-05T03:54:32.036Z,1023.72
2018-12-05T03:55:32.047Z,1023.71
2018-12-05T03:56:32.067Z,1023.73
2018-12-05T03:57:32.012Z,1023.69
2018-12-05T03:58:31.993Z,1023.63
2018-12-05T03:59:31.979Z,1023.65
2018-12-05T04:00:31.969Z,1023.69
2018-12-05T04:01:31.982Z,1023.67
2018-12-05T04:02:31.951Z,1023.67
2018-12-05T04:03:31.944Z,1023.66
2018-12-05T04:04:31.928Z,1023.66
2018-12-05T04:05:31.921Z,1023.67
2018-12-05T04:06:31.930Z,1023.71
2018-12-05T04:07:31.891Z,1023.74
2018-12-05T04:08:31.881Z,1023.76
2018-12-05T04:09:31.886Z,1023.70
2018-12-05T04:10:31.857Z,1023.70
2018-12-05T04:11:31.918Z,1023.69
2018-12-05T04:12:40.223Z,1023.67
2018-12-05T04:13:32.828Z,1023.79
2018-12-05T04:14:31.830Z,1023.72
2018-12-05T04:15:31.808Z,1023.69
2018-12-05T04:16:31.928Z,1023.73
2018-12-05T04:17:31.808Z,1023.72
2018-12-05T04:18:31.791Z,1023.73
2018-12-05T04:19:31.770Z,1023.74
2018-12-05T04:20:31.756Z,1023.77
2018-12-05T04:21:31.742Z,1023.85
2018-12-05T04:22:31.763Z,1023.80
2018-12-05T04:23:31.720Z,1023.78
2018-12-05T04:24:31.712Z,1023.83
2018-12-05T04:25:31.697Z,1023.80
2018-12-05T04:26:31.693Z,1023.89
2018-12-05T04:27:31.705Z,1023.90
2018-12-05T04:28:31.726Z,1023.92
2018-12-05T04:29:31.665Z,1023.92
2018-12-05T04:30:31.672Z,1023.94
2018-12-05T04:31:31.632Z,1023.84
2018-12-05T04:32:31.676Z,1023.89
2018-12-05T04:33:31.652Z,1023.91
2018-12-05T04:34:31.610Z,1023.95
2018-12-05T04:35:31.601Z,1023.98
2018-12-05T04:36:31.594Z,1023.90
2018-12-05T04:37:31.585Z,1023.90
2018-12-05T04:38:31.577Z,1023.86
2018-12-05T04:39:31.553Z,1023.91
2018-12-05T04:40:31.545Z,1023.92
2018-12-05T04:41:31.529Z,1023.91
2018-12-05T04:42:31.513Z,1023.85
2018-12-05T04:43:31.554Z,1023.82
2018-12-05T04:44:31.489Z,1023.84
2018-12-05T04:45:31.485Z,1023.85
2018-12-05T04:46:31.474Z,1023.79
2018-12-05T04:47:31.460Z,1023.78
2018-12-05T04:48:31.479Z,1023.78
2018-12-05T04:49:31.467Z,1023.77
2018-12-05T04:50:31.433Z,1023.71
2018-12-05T04:51:31.422Z,1023.75
2018-12-05T04:52:31.416Z,1023.73
2018-12-05T04:53:31.444Z,1023.70
2018-12-05T04:54:31.381Z,1023.69
2018-12-05T04:55:31.384Z,1023.63
2018-12-05T04:56:31.363Z,1023.60
2018-12-05T04:57:31.351Z,1023.58
2018-12-05T04:58:31.350Z,1023.56
2018-12-05T04:59:31.361Z,1023.55
2018-12-05T05:00:31.326Z,1023.51
2018-12-05T05:01:31.317Z,1023.56
2018-12-05T05:02:31.296Z,1023.56
2018-12-05T05:03:31.300Z,1023.63
2018-12-05T05:04:31.327Z,1023.52
2018-12-05T05:05:31.289Z,1023.57
2018-12-05T05:06:31.256Z,1023.59
2018-12-05T05:07:31.242Z,1023.52
2018-12-05T05:08:31.236Z,1023.49
2018-12-05T05:09:31.256Z,1023.49
2018-12-05T05:10:31.213Z,1023.49
2018-12-05T05:11:31.201Z,1023.49
2018-12-05T05:12:31.188Z,1023.41
2018-12-05T05:13:31.186Z,1023.48
2018-12-05T05:14:31.279Z,1023.42
2018-12-05T05:15:31.223Z,1023.39
2018-12-05T05:16:31.144Z,1023.39
2018-12-05T05:17:31.130Z,1023.44
2018-12-05T05:18:31.123Z,1023.40
2018-12-05T05:19:31.113Z,1023.44
2018-12-05T05:20:31.133Z,1023.41
2018-12-05T05:21:31.103Z,1023.37
2018-12-05T05:22:31.086Z,1023.38
2018-12-05T05:23:31.070Z,1023.31
2018-12-05T05:24:31.059Z,1023.33
2018-12-05T05:25:31.076Z,1023.40
2018-12-05T05:26:31.112Z,1023.42
2018-12-05T05:27:31.034Z,1023.36
2018-12-05T05:28:31.035Z,1023.43
2018-12-05T05:29:31.001Z,1023.47
2018-12-05T05:30:30.995Z,1023.48
2018-12-05T05:31:31.011Z,1023.45
2018-12-05T05:32:30.974Z,1023.44
2018-12-05T05:33:30.957Z,1023.45
2018-12-05T05:34:30.978Z,1023.50
2018-12-05T05:35:30.937Z,1023.47
2018-12-05T05:36:30.969Z,1023.44
2018-12-05T05:37:30.915Z,1023.45
2018-12-05T05:38:30.904Z,1023.49
2018-12-05T05:39:30.897Z,1023.49
2018-12-05T05:40:30.912Z,1023.45
2018-12-05T05:41:30.899Z,1023.46
2018-12-05T05:42:30.858Z,1023.48
2018-12-05T05:43:30.855Z,1023.46
2018-12-05T05:44:30.846Z,1023.47
2018-12-05T05:45:30.828Z,1023.50
2018-12-05T05:46:30.863Z,1023.48
2018-12-05T05:47:30.812Z,1023.57
2018-12-05T05:48:30.796Z,1023.44
2018-12-05T05:49:30.784Z,1023.47
2018-12-05T05:50:30.776Z,1023.49
2018-12-05T05:51:30.765Z,1023.52
2018-12-05T05:52:30.795Z,1023.53
2018-12-05T05:53:30.759Z,1023.52
2018-12-05T05:54:30.730Z,1023.58
2018-12-05T05:55:30.729Z,1023.59
2018-12-05T05:56:30.711Z,1023.46
2018-12-05T05:57:30.727Z,1023.50
2018-12-05T05:58:30.704Z,1023.51
2018-12-05T05:59:30.693Z,1023.53
2018-12-05T06:00:30.669Z,1023.55
2018-12-05T06:01:30.654Z,1023.55
2018-12-05T06:02:30.677Z,1023.61
2018-12-05T06:03:30.666Z,1023.59
2018-12-05T06:04:30.623Z,1023.59
2018-12-05T06:05:30.608Z,1023.55
2018-12-05T06:06:30.605Z,1023.54
2018-12-05T06:07:30.624Z,1023.54
2018-12-05T06:08:30.602Z,1023.50
2018-12-05T06:09:30.591Z,1023.50
2018-12-05T06:10:30.561Z,1023.46
2018-12-05T06:11:30.549Z,1023.46
2018-12-05T06:12:30.566Z,1023.45
2018-12-05T06:13:30.529Z,1023.42
2018-12-05T06:14:30.539Z,1023.41
2018-12-05T06:15:30.502Z,1023.44
2018-12-05T06:16:30.504Z,1023.44
2018-12-05T06:17:30.483Z,1023.47
2018-12-05T06:18:30.492Z,1023.49
2018-12-05T06:19:30.462Z,1023.42
2018-12-05T06:20:30.444Z,1023.46
2018-12-05T06:21:30.443Z,1023.46
2018-12-05T06:22:30.420Z,1023.41
2018-12-05T06:23:30.451Z,1023.45
2018-12-05T06:24:30.923Z,1023.45
2018-12-05T06:25:30.389Z,1023.39
2018-12-05T06:26:30.380Z,1023.39
2018-12-05T06:27:30.388Z,1023.41
2018-12-05T06:28:30.381Z,1023.40
2018-12-05T06:29:30.354Z,1023.42
2018-12-05T06:30:30.333Z,1023.43
2018-12-05T06:31:30.324Z,1023.45
2018-12-05T06:32:30.314Z,1023.43
2018-12-05T06:33:30.906Z,1023.49
2018-12-05T06:34:30.295Z,1023.45
2018-12-05T06:35:30.278Z,1023.43
2018-12-05T06:36:30.270Z,1023.45
2018-12-05T06:37:30.287Z,1023.45
2018-12-05T06:38:30.274Z,1023.39
2018-12-05T06:39:30.260Z,1023.46
2018-12-05T06:40:30.229Z,1023.41
2018-12-05T06:41:30.215Z,1023.38
2018-12-05T06:42:30.205Z,1023.39
2018-12-05T06:43:30.191Z,1023.41
2018-12-05T06:44:30.208Z,1023.36
2018-12-05T06:45:30.169Z,1023.36
2018-12-05T06:46:30.178Z,1023.40
2018-12-05T06:47:30.165Z,1023.40
2018-12-05T06:48:30.171Z,1023.37
2018-12-05T06:49:30.152Z,1023.39
2018-12-05T06:50:30.115Z,1023.35
2018-12-05T06:51:30.104Z,1023.36
2018-12-05T06:52:30.106Z,1023.32
2018-12-05T06:53:30.096Z,1023.25
2018-12-05T06:54:30.101Z,1023.21
2018-12-05T06:55:30.067Z,1023.20
2018-12-05T06:56:30.051Z,1023.16
2018-12-05T06:57:30.034Z,1023.18
2018-12-05T06:58:30.028Z,1023.27
2018-12-05T06:59:30.068Z,1023.24
2018-12-05T07:00:30.027Z,1023.24
2018-12-05T07:01:30.002Z,1023.26
2018-12-05T07:02:29.983Z,1023.29
2018-12-05T07:03:29.974Z,1023.26
2018-12-05T07:04:29.968Z,1023.25
2018-12-05T07:05:29.980Z,1023.29
2018-12-05T07:06:29.964Z,1023.31
2018-12-05T07:07:29.939Z,1023.32
2018-12-05T07:08:29.932Z,1023.36
2018-12-05T07:09:29.909Z,1023.38
2018-12-05T07:10:29.922Z,1023.39
2018-12-05T07:11:29.887Z,1023.40
2018-12-05T07:12:29.873Z,1023.44
2018-12-05T07:13:29.857Z,1023.43
2018-12-05T07:14:29.868Z,1023.36
2018-12-05T07:15:29.837Z,1023.48
2018-12-05T07:16:29.852Z,1023.45
2018-12-05T07:17:29.812Z,1023.45
2018-12-05T07:18:29.805Z,1023.43
2018-12-05T07:19:29.797Z,1023.44
2018-12-05T07:20:29.813Z,1023.44
2018-12-05T07:21:29.786Z,1023.49
2018-12-05T07:22:29.763Z,1023.41
2018-12-05T07:23:29.750Z,1023.46
2018-12-05T07:24:29.741Z,1023.43
2018-12-05T07:25:29.758Z,1023.46
2018-12-05T07:26:29.739Z,1023.47
2018-12-05T07:27:29.728Z,1023.41
2018-12-05T07:28:29.697Z,1023.40
2018-12-05T07:29:29.688Z,1023.40
2018-12-05T07:30:29.690Z,1023.42
2018-12-05T07:31:29.687Z,1023.36
2018-12-05T07:32:29.657Z,1023.28
2018-12-05T07:33:29.658Z,1023.31
2018-12-05T07:34:29.624Z,1023.31
2018-12-05T07:35:29.643Z,1023.29
2018-12-05T07:36:29.617Z,1023.30
2018-12-05T07:37:29.625Z,1023.30
2018-12-05T07:38:29.582Z,1023.23
2018-12-05T07:39:29.585Z,1023.22
2018-12-05T07:40:29.610Z,1023.26
2018-12-05T07:41:29.563Z,1023.22
2018-12-05T07:42:29.631Z,1023.23
2018-12-05T07:43:29.553Z,1023.23
2018-12-05T07:44:29.524Z,1023.22
2018-12-05T07:45:29.512Z,1023.22
2018-12-05T07:46:29.550Z,1023.15
2018-12-05T07:47:29.512Z,1023.18
2018-12-05T07:48:29.497Z,1023.16
2018-12-05T07:49:29.461Z,1023.18
2018-12-05T07:50:29.464Z,1023.17
2018-12-05T07:51:29.478Z,1023.14
2018-12-05T07:52:29.427Z,1023.16
2018-12-05T07:53:29.417Z,1023.17
2018-12-05T07:54:29.428Z,1023.20
2018-12-05T07:55:29.399Z,1023.15
2018-12-05T07:56:29.423Z,1023.21
2018-12-05T07:57:29.374Z,1023.19
2018-12-05T07:58:29.397Z,1023.19
2018-12-05T07:59:29.366Z,1023.13
2018-12-05T08:00:29.339Z,1023.21
2018-12-05T08:01:29.337Z,1023.15
2018-12-05T08:02:29.369Z,1023.13
2018-12-05T08:03:29.303Z,1023.15
2018-12-05T08:04:29.296Z,1023.13
2018-12-05T08:05:29.283Z,1023.10
2018-12-05T08:06:29.304Z,1023.01
2018-12-05T08:07:29.285Z,1023.03
2018-12-05T08:08:29.263Z,1022.97
2018-12-05T08:09:29.255Z,1022.99
2018-12-05T08:10:29.272Z,1023.00
2018-12-05T08:11:29.223Z,1023.00
2018-12-05T08:12:29.245Z,1022.98
2018-12-05T08:13:29.193Z,1022.97
2018-12-05T08:14:29.184Z,1022.97
2018-12-05T08:15:29.181Z,1023.05
2018-12-05T08:16:29.187Z,1023.01
2018-12-05T08:17:29.188Z,1023.00
2018-12-05T08:18:29.151Z,1023.03
2018-12-05T08:19:29.138Z,1022.97
2018-12-05T08:20:29.129Z,1022.97
2018-12-05T08:21:29.106Z,1023.00
2018-12-05T08:22:29.129Z,1022.98
2018-12-05T08:23:29.091Z,1022.98
2018-12-05T08:24:29.080Z,1022.97
2018-12-05T08:25:29.067Z,1022.98
2018-12-05T08:26:29.081Z,1023.02
2018-12-05T08:27:29.065Z,1022.99
2018-12-05T08:28:29.029Z,1022.96
2018-12-05T08:29:29.034Z,1022.98
2018-12-05T08:30:29.104Z,1023.00
2018-12-05T08:31:28.996Z,1023.00
2018-12-05T08:32:29.018Z,1023.03
2018-12-05T08:33:28.988Z,1022.96
2018-12-05T08:34:28.970Z,1022.99
2018-12-05T08:35:28.985Z,1022.87
2018-12-05T08:36:28.951Z,1022.86
2018-12-05T08:37:28.974Z,1022.83
2018-12-05T08:38:28.918Z,1022.87
2018-12-05T08:39:28.923Z,1022.82
2018-12-05T08:40:28.901Z,1022.83
2018-12-05T08:41:28.884Z,1022.85
2018-12-05T08:42:28.884Z,1022.79
2018-12-05T08:43:28.900Z,1022.74
2018-12-05T08:44:28.855Z,1022.77
2018-12-05T08:45:28.845Z,1022.75
2018-12-05T08:46:28.837Z,1022.72
2018-12-05T08:47:33.772Z,1022.67
2018-12-05T08:48:29.844Z,1022.73
2018-12-05T08:49:28.798Z,1022.78
2018-12-05T08:50:28.794Z,1022.80
2018-12-05T08:51:28.782Z,1022.77
2018-12-05T08:52:28.784Z,1022.80
2018-12-05T08:53:28.805Z,1022.85
2018-12-05T08:54:28.786Z,1022.84
2018-12-05T08:55:28.733Z,1022.83
2018-12-05T08:56:28.743Z,1022.86
2018-12-05T08:57:28.717Z,1022.81
2018-12-05T08:58:28.734Z,1022.75
2018-12-05T08:59:28.693Z,1022.71
2018-12-05T09:00:28.681Z,1022.69
2018-12-05T09:01:28.671Z,1022.72
2018-12-05T09:02:28.658Z,1022.68
2018-12-05T09:03:28.690Z,1022.62
2018-12-05T09:04:28.642Z,1022.63
2018-12-05T09:05:28.656Z,1022.61
2018-12-05T09:06:28.617Z,1022.58
2018-12-05T09:07:28.603Z,1022.57
2018-12-05T09:08:28.627Z,1022.57
2018-12-05T09:09:28.608Z,1022.43
2018-12-05T09:10:28.571Z,1022.43
2018-12-05T09:11:28.564Z,1022.38
2018-12-05T09:12:28.545Z,1022.42
2018-12-05T09:13:28.553Z,1022.40
2018-12-05T09:14:29.022Z,1022.44
2018-12-05T09:15:28.519Z,1022.37
2018-12-05T09:16:28.505Z,1022.38
2018-12-05T09:17:28.495Z,1022.37
2018-12-05T09:18:28.480Z,1022.37
2018-12-05T09:19:28.529Z,1022.40
2018-12-05T09:20:28.463Z,1022.37
2018-12-05T09:21:28.449Z,1022.37
2018-12-05T09:22:28.438Z,1022.38
2018-12-05T09:23:28.425Z,1022.29
2018-12-05T09:24:28.442Z,1022.30
2018-12-05T09:25:28.421Z,1022.27
2018-12-05T09:26:28.437Z,1022.25
2018-12-05T09:27:28.381Z,1022.26
2018-12-05T09:28:28.369Z,1022.29
2018-12-05T09:29:28.361Z,1022.27
2018-12-05T09:30:28.378Z,1022.27
2018-12-05T09:31:28.345Z,1022.22
2018-12-05T09:32:28.348Z,1022.24
2018-12-05T09:33:28.326Z,1022.28
2018-12-05T09:34:28.336Z,1022.29
2018-12-05T09:35:28.294Z,1022.31
2018-12-05T09:36:28.283Z,1022.31
2018-12-05T09:37:28.286Z,1022.31
2018-12-05T09:38:28.271Z,1022.28
2018-12-05T09:39:28.250Z,1022.23
2018-12-05T09:40:28.269Z,1022.18
2018-12-05T09:41:28.262Z,1022.22
2018-12-05T09:42:28.228Z,1022.19
2018-12-05T09:43:28.237Z,1022.12
2018-12-05T09:44:28.220Z,1022.07
2018-12-05T09:45:28.206Z,1022.13
2018-12-05T09:46:28.171Z,1022.14
2018-12-05T09:47:28.165Z,1022.20
2018-12-05T09:48:28.158Z,1022.20
2018-12-05T09:49:28.145Z,1022.27
2018-12-05T09:50:28.168Z,1022.24
2018-12-05T09:51:28.142Z,1022.25
2018-12-05T09:52:28.115Z,1022.26
2018-12-05T09:53:28.104Z,1022.22
2018-12-05T09:54:28.120Z,1022.17
2018-12-05T09:55:28.099Z,1022.18
2018-12-05T09:56:28.081Z,1022.17
2018-12-05T09:57:28.046Z,1022.18
2018-12-05T09:58:28.036Z,1022.15
2018-12-05T09:59:28.040Z,1022.15
2018-12-05T10:00:28.049Z,1022.10
2018-12-05T10:01:28.043Z,1022.12
2018-12-05T10:02:28.014Z,1022.08
2018-12-05T10:03:27.980Z,1022.06
2018-12-05T10:04:27.972Z,1022.07
2018-12-05T10:05:27.988Z,1022.06
2018-12-05T10:06:27.947Z,1022.05
2018-12-05T10:07:27.937Z,1021.98
2018-12-05T10:08:27.957Z,1021.96
2018-12-05T10:09:27.923Z,1021.95
2018-12-05T10:10:27.905Z,1021.91
2018-12-05T10:11:27.935Z,1021.94
2018-12-05T10:12:27.907Z,1021.91
2018-12-05T10:13:27.907Z,1021.89
2018-12-05T10:14:27.862Z,1021.93
2018-12-05T10:15:27.861Z,1021.92
2018-12-05T10:16:27.866Z,1021.95
2018-12-05T10:17:27.861Z,1021.88
2018-12-05T10:18:27.832Z,1021.86
2018-12-05T10:19:27.805Z,1021.82
2018-12-05T10:20:27.804Z,1021.78
2018-12-05T10:21:27.785Z,1021.80
2018-12-05T10:22:27.773Z,1021.78
2018-12-05T10:23:27.797Z,1021.75
2018-12-05T10:24:27.747Z,1021.72
2018-12-05T10:25:27.739Z,1021.69
2018-12-05T10:26:27.729Z,1021.63
2018-12-05T10:27:27.712Z,1021.57
2018-12-05T10:28:27.713Z,1021.62
2018-12-05T10:29:27.726Z,1021.58
2018-12-05T10:30:27.694Z,1021.58
2018-12-05T10:31:27.700Z,1021.56
2018-12-05T10:32:27.666Z,1021.61
2018-12-05T10:33:27.648Z,1021.59
2018-12-05T10:34:27.644Z,1021.57
2018-12-05T10:35:27.633Z,1021.50
2018-12-05T10:36:27.640Z,1021.56
2018-12-05T10:37:27.631Z,1021.49
2018-12-05T10:38:27.596Z,1021.53
2018-12-05T10:39:27.579Z,1021.51
2018-12-05T10:40:27.593Z,1021.47
2018-12-05T10:41:27.563Z,1021.50
2018-12-05T10:42:27.572Z,1021.45
2018-12-05T10:43:27.600Z,1021.46
2018-12-05T10:44:27.544Z,1021.43
2018-12-05T10:45:27.519Z,1021.40
2018-12-05T10:46:27.536Z,1021.43
2018-12-05T10:47:27.534Z,1021.38
2018-12-05T10:48:27.477Z,1021.36
2018-12-05T10:49:27.472Z,1021.34
2018-12-05T10:50:27.457Z,1021.30
2018-12-05T10:51:27.469Z,1021.33
2018-12-05T10:52:27.437Z,1021.33
2018-12-05T10:53:27.438Z,1021.30
2018-12-05T10:54:27.411Z,1021.27
2018-12-05T10:55:27.408Z,1021.23
2018-12-05T10:56:27.415Z,1021.29
2018-12-05T10:57:27.375Z,1021.29
2018-12-05T10:58:27.366Z,1021.25
2018-12-05T10:59:27.374Z,1021.20
2018-12-05T11:00:27.344Z,1021.19
2018-12-05T11:01:27.359Z,1021.17
2018-12-05T11:02:27.325Z,1021.11
2018-12-05T11:03:27.341Z,1021.08
2018-12-05T11:04:27.308Z,1021.11
2018-12-05T11:05:27.307Z,1021.02
2018-12-05T11:06:27.280Z,1020.98
2018-12-05T11:07:27.319Z,1021.01
2018-12-05T11:08:27.282Z,1021.01
2018-12-05T11:09:27.244Z,1020.93
2018-12-05T11:10:27.234Z,1020.95
2018-12-05T11:11:27.238Z,1020.94
2018-12-05T11:12:27.217Z,1020.94
2018-12-05T11:13:27.226Z,1020.85
2018-12-05T11:14:27.200Z,1020.87
2018-12-05T11:15:27.177Z,1020.83
2018-12-05T11:16:27.167Z,1020.82
2018-12-05T11:17:27.192Z,1020.76
2018-12-05T11:18:27.181Z,1020.76
2018-12-05T11:19:27.146Z,1020.84
2018-12-05T11:20:27.124Z,1020.78
2018-12-05T11:21:27.113Z,1020.79
2018-12-05T11:22:27.116Z,1020.78
2018-12-05T11:23:27.180Z,1020.76
2018-12-05T11:24:27.088Z,1020.73
2018-12-05T11:25:27.086Z,1020.75
2018-12-05T11:26:27.060Z,1020.73
2018-12-05T11:27:27.053Z,1020.71
2018-12-05T11:28:27.070Z,1020.73
2018-12-05T11:29:27.047Z,1020.74
2018-12-05T11:30:27.037Z,1020.66
2018-12-05T11:31:27.039Z,1020.65
2018-12-05T11:32:26.992Z,1020.59
2018-12-05T11:33:26.990Z,1020.63
2018-12-05T11:34:27.016Z,1020.59
2018-12-05T11:35:26.984Z,1020.56
2018-12-05T11:36:26.970Z,1020.58
2018-12-05T11:37:26.937Z,1020.55
2018-12-05T11:38:26.923Z,1020.46
2018-12-05T11:39:26.947Z,1020.40
2018-12-05T11:40:26.917Z,1020.38
2018-12-05T11:41:26.902Z,1020.39
2018-12-05T11:42:26.903Z,1020.36
2018-12-05T11:43:26.866Z,1020.30
2018-12-05T11:44:26.924Z,1020.33
2018-12-05T11:45:26.846Z,1020.37
2018-12-05T11:46:26.841Z,1020.35
2018-12-05T11:47:26.863Z,1020.38
2018-12-05T11:48:26.834Z,1020.38
2018-12-05T11:49:26.840Z,1020.37
2018-12-05T11:50:26.793Z,1020.39
2018-12-05T11:51:26.792Z,1020.33
2018-12-05T11:52:26.770Z,1020.39
2018-12-05T11:53:26.778Z,1020.40
2018-12-05T11:54:26.801Z,1020.39
2018-12-05T11:55:26.742Z,1020.41
2018-12-05T11:56:26.730Z,1020.44
2018-12-05T11:57:26.725Z,1020.43
2018-12-05T11:58:26.706Z,1020.37
2018-12-05T11:59:26.705Z,1020.33
2018-12-05T12:00:26.734Z,1020.29
2018-12-05T12:01:26.669Z,1020.27
2018-12-05T12:02:26.657Z,1020.26
2018-12-05T12:03:26.643Z,1020.23
2018-12-05T12:04:26.700Z,1020.25
2018-12-05T12:05:26.636Z,1020.23